Terminal Aerodrome Forecast
Issued by NWS Paducah, KY

Home | Current Version | Previous Version | Text Only | Print | Product List | Glossary On
Versions: 1 2 3 4 5 6 7 8 9 10 11 12 13 14 15 16 17 18 19 20 21 22 23 24
000
FTUS43 KPAH 242113 AAB
TAFPAH
TAF AMD
KPAH 242113Z 2421/2518 22015G27KT P6SM OVC035
      TEMPO 2421/2424 5SM -TSRA BR BKN025CB
     FM250000 26012G17KT P6SM BKN040
     FM250600 29012G18KT P6SM SCT100
     FM251300 30010KT P6SM SCT250=

USA.gov is the U.S. government's official web portal to all federal, state and local government web resources and services.